sensor_id;sensor_type;location;lat;lon;timestamp;pressure;altitude;pressure_sealevel;temperature;humidity
74615;BME280;63121;51.458;-0.110;2023-09-18T00:00:09;100282.91;;;20.33;75.95
74615;BME280;63121;51.458;-0.110;2023-09-18T00:02:38;100274.63;;;20.25;77.54
74615;BME280;63121;51.458;-0.110;2023-09-18T00:05:03;100291.56;;;20.19;79.86
74615;BME280;63121;51.458;-0.110;2023-09-18T00:07:29;100286.81;;;20.40;84.90
74615;BME280;63121;51.458;-0.110;2023-09-18T00:09:54;100281.78;;;20.82;78.26
74615;BME280;63121;51.458;-0.110;2023-09-18T00:12:20;100267.47;;;21.29;76.15
74615;BME280;63121;51.458;-0.110;2023-09-18T00:14:50;100262.16;;;21.16;75.55
74615;BME280;63121;51.458;-0.110;2023-09-18T00:17:16;100252.31;;;21.20;77.93
74615;BME280;63121;51.458;-0.110;2023-09-18T00:19:44;100237.38;;;21.49;74.71
74615;BME280;63121;51.458;-0.110;2023-09-18T00:22:09;100235.03;;;21.71;74.08
74615;BME280;63121;51.458;-0.110;2023-09-18T00:24:35;100205.78;;;21.90;73.71
74615;BME280;63121;51.458;-0.110;2023-09-18T00:27:00;100191.38;;;22.09;73.12
74615;BME280;63121;51.458;-0.110;2023-09-18T00:29:25;100189.28;;;22.14;72.84
74615;BME280;63121;51.458;-0.110;2023-09-18T00:31:51;100196.13;;;22.17;73.13
74615;BME280;63121;51.458;-0.110;2023-09-18T00:34:16;100193.69;;;22.13;72.23
74615;BME280;63121;51.458;-0.110;2023-09-18T00:36:41;100192.84;;;22.13;72.54
74615;BME280;63121;51.458;-0.110;2023-09-18T00:39:07;100193.81;;;22.12;72.66
74615;BME280;63121;51.458;-0.110;2023-09-18T00:41:33;100183.91;;;22.16;73.34
74615;BME280;63121;51.458;-0.110;2023-09-18T00:43:58;100175.09;;;22.17;71.81
74615;BME280;63121;51.458;-0.110;2023-09-18T00:46:24;100174.25;;;22.03;72.44
74615;BME280;63121;51.458;-0.110;2023-09-18T00:48:50;100162.44;;;21.96;71.76
74615;BME280;63121;51.458;-0.110;2023-09-18T00:51:16;100145.34;;;22.03;72.47
74615;BME280;63121;51.458;-0.110;2023-09-18T00:53:45;100160.13;;;21.79;71.57
74615;BME280;63121;51.458;-0.110;2023-09-18T00:56:13;100162.13;;;21.88;72.55
74615;BME280;63121;51.458;-0.110;2023-09-18T00:58:39;100159.66;;;21.59;71.19
74615;BME280;63121;51.458;-0.110;2023-09-18T01:01:05;100157.97;;;21.58;71.69
74615;BME280;63121;51.458;-0.110;2023-09-18T01:03:30;100146.84;;;21.55;71.25
74615;BME280;63121;51.458;-0.110;2023-09-18T01:05:56;100153.25;;;21.50;71.23
74615;BME280;63121;51.458;-0.110;2023-09-18T01:08:22;100141.94;;;21.36;71.60
74615;BME280;63121;51.458;-0.110;2023-09-18T01:10:56;100136.28;;;21.42;71.31
74615;BME280;63121;51.458;-0.110;2023-09-18T01:13:28;100137.38;;;21.38;70.97
74615;BME280;63121;51.458;-0.110;2023-09-18T01:15:58;100132.63;;;21.44;70.81
74615;BME280;63121;51.458;-0.110;2023-09-18T01:18:25;100123.59;;;21.21;71.86
74615;BME280;63121;51.458;-0.110;2023-09-18T01:20:51;100123.22;;;21.55;70.97
74615;BME280;63121;51.458;-0.110;2023-09-18T01:23:16;100115.66;;;21.36;71.32
74615;BME280;63121;51.458;-0.110;2023-09-18T01:25:42;100099.66;;;21.53;71.56
74615;BME280;63121;51.458;-0.110;2023-09-18T01:28:07;100087.88;;;21.46;70.74
74615;BME280;63121;51.458;-0.110;2023-09-18T01:30:32;100072.19;;;21.31;70.93
74615;BME280;63121;51.458;-0.110;2023-09-18T01:32:59;100058.06;;;21.47;70.93
74615;BME280;63121;51.458;-0.110;2023-09-18T01:35:26;100065.94;;;21.20;71.54
74615;BME280;63121;51.458;-0.110;2023-09-18T01:37:59;100057.03;;;21.35;71.23
74615;BME280;63121;51.458;-0.110;2023-09-18T01:40:25;100040.34;;;21.23;71.73
74615;BME280;63121;51.458;-0.110;2023-09-18T01:42:53;100023.31;;;21.29;71.16
74615;BME280;63121;51.458;-0.110;2023-09-18T01:45:18;100013.97;;;21.38;70.49
74615;BME280;63121;51.458;-0.110;2023-09-18T01:47:45;100009.69;;;21.37;71.13
74615;BME280;63121;51.458;-0.110;2023-09-18T01:50:10;100004.53;;;21.35;70.71
74615;BME280;63121;51.458;-0.110;2023-09-18T01:52:36;99991.00;;;21.28;70.36
74615;BME280;63121;51.458;-0.110;2023-09-18T01:55:02;99975.78;;;21.34;70.73
74615;BME280;63121;51.458;-0.110;2023-09-18T01:57:31;99956.53;;;21.33;70.33
74615;BME280;63121;51.458;-0.110;2023-09-18T01:59:56;99959.19;;;21.46;70.39
74615;BME280;63121;51.458;-0.110;2023-09-18T02:02:22;99971.78;;;21.41;69.90
74615;BME280;63121;51.458;-0.110;2023-09-18T02:04:47;100014.31;;;21.33;70.35
74615;BME280;63121;51.458;-0.110;2023-09-18T02:07:12;100010.59;;;21.23;70.39
74615;BME280;63121;51.458;-0.110;2023-09-18T02:09:38;99997.94;;;21.29;70.21
74615;BME280;63121;51.458;-0.110;2023-09-18T02:12:04;100012.00;;;21.41;70.52
74615;BME280;63121;51.458;-0.110;2023-09-18T02:14:29;99999.66;;;21.43;69.97
74615;BME280;63121;51.458;-0.110;2023-09-18T02:16:56;99999.31;;;21.48;70.17
74615;BME280;63121;51.458;-0.110;2023-09-18T02:19:22;100006.19;;;21.50;69.71
74615;BME280;63121;51.458;-0.110;2023-09-18T02:21:47;100000.66;;;21.41;69.75
74615;BME280;63121;51.458;-0.110;2023-09-18T02:24:13;99995.84;;;21.35;70.39
74615;BME280;63121;51.458;-0.110;2023-09-18T02:26:38;99998.97;;;21.27;70.28
74615;BME280;63121;51.458;-0.110;2023-09-18T02:29:07;100005.34;;;21.23;70.02
74615;BME280;63121;51.458;-0.110;2023-09-18T02:31:34;100010.59;;;21.23;70.54
74615;BME280;63121;51.458;-0.110;2023-09-18T02:33:59;99996.34;;;21.40;70.47
74615;BME280;63121;51.458;-0.110;2023-09-18T02:36:25;100002.88;;;21.34;70.02
74615;BME280;63121;51.458;-0.110;2023-09-18T02:38:50;99996.75;;;21.21;70.20
74615;BME280;63121;51.458;-0.110;2023-09-18T02:41:15;99999.81;;;21.27;70.29
74615;BME280;63121;51.458;-0.110;2023-09-18T02:43:41;99982.78;;;21.20;70.73
74615;BME280;63121;51.458;-0.110;2023-09-18T02:46:08;99994.75;;;21.11;70.32
74615;BME280;63121;51.458;-0.110;2023-09-18T02:48:33;99998.81;;;21.03;69.53
74615;BME280;63121;51.458;-0.110;2023-09-18T02:51:00;99998.81;;;21.03;70.15
74615;BME280;63121;51.458;-0.110;2023-09-18T02:53:25;99988.28;;;20.77;70.83
74615;BME280;63121;51.458;-0.110;2023-09-18T02:55:53;99984.16;;;20.73;70.34
74615;BME280;63121;51.458;-0.110;2023-09-18T02:58:19;99983.81;;;20.65;70.45
74615;BME280;63121;51.458;-0.110;2023-09-18T03:00:46;99981.19;;;20.50;71.20
74615;BME280;63121;51.458;-0.110;2023-09-18T03:03:13;99985.78;;;20.47;71.32
74615;BME280;63121;51.458;-0.110;2023-09-18T03:05:40;99973.84;;;20.43;71.24
74615;BME280;63121;51.458;-0.110;2023-09-18T03:08:05;99980.88;;;20.28;71.35
74615;BME280;63121;51.458;-0.110;2023-09-18T03:10:35;99984.03;;;20.47;71.59
74615;BME280;63121;51.458;-0.110;2023-09-18T03:13:04;99981.59;;;20.44;70.73
74615;BME280;63121;51.458;-0.110;2023-09-18T03:15:30;99982.44;;;20.45;71.12
74615;BME280;63121;51.458;-0.110;2023-09-18T03:17:56;99978.75;;;20.20;71.25
74615;BME280;63121;51.458;-0.110;2023-09-18T03:20:23;99986.97;;;20.43;71.65
74615;BME280;63121;51.458;-0.110;2023-09-18T03:22:49;99984.47;;;20.27;71.29
74615;BME280;63121;51.458;-0.110;2023-09-18T03:25:14;99991.19;;;20.31;71.11
74615;BME280;63121;51.458;-0.110;2023-09-18T03:27:39;99991.28;;;20.29;71.19
74615;BME280;63121;51.458;-0.110;2023-09-18T03:30:05;99989.91;;;20.24;71.09
74615;BME280;63121;51.458;-0.110;2023-09-18T03:32:32;99984.09;;;20.04;71.81
74615;BME280;63121;51.458;-0.110;2023-09-18T03:34:57;99987.66;;;20.18;71.67
74615;BME280;63121;51.458;-0.110;2023-09-18T03:37:23;99986.13;;;20.28;71.54
74615;BME280;63121;51.458;-0.110;2023-09-18T03:39:48;99991.56;;;20.39;71.01
74615;BME280;63121;51.458;-0.110;2023-09-18T03:42:13;99994.16;;;20.39;70.52
74615;BME280;63121;51.458;-0.110;2023-09-18T03:44:39;100000.34;;;20.38;70.54
74615;BME280;63121;51.458;-0.110;2023-09-18T03:47:04;99995.09;;;20.38;70.30
74615;BME280;63121;51.458;-0.110;2023-09-18T03:49:30;99996.41;;;20.45;70.89
74615;BME280;63121;51.458;-0.110;2023-09-18T03:51:55;99996.19;;;20.48;70.48
74615;BME280;63121;51.458;-0.110;2023-09-18T03:54:20;100009.97;;;20.38;70.87
74615;BME280;63121;51.458;-0.110;2023-09-18T03:56:46;99995.53;;;20.45;70.76
74615;BME280;63121;51.458;-0.110;2023-09-18T03:59:12;100000.38;;;20.51;70.33
74615;BME280;63121;51.458;-0.110;2023-09-18T04:01:38;99990.66;;;20.53;70.30
74615;BME280;63121;51.458;-0.110;2023-09-18T04:04:04;100004.44;;;20.42;70.15
74615;BME280;63121;51.458;-0.110;2023-09-18T04:06:37;99997.63;;;20.40;70.06
74615;BME280;63121;51.458;-0.110;2023-09-18T04:09:03;100003.97;;;20.50;69.84
74615;BME280;63121;51.458;-0.110;2023-09-18T04:11:28;99991.50;;;20.54;70.18
74615;BME280;63121;51.458;-0.110;2023-09-18T04:13:57;99989.63;;;20.56;70.01
74615;BME280;63121;51.458;-0.110;2023-09-18T04:16:22;100000.53;;;20.35;70.59
74615;BME280;63121;51.458;-0.110;2023-09-18T04:18:48;99998.31;;;20.29;70.55
74615;BME280;63121;51.458;-0.110;2023-09-18T04:21:13;100002.88;;;20.25;70.07
74615;BME280;63121;51.458;-0.110;2023-09-18T04:23:39;100001.19;;;20.39;70.13
74615;BME280;63121;51.458;-0.110;2023-09-18T04:26:04;99998.38;;;20.42;70.44
74615;BME280;63121;51.458;-0.110;2023-09-18T04:28:29;99999.56;;;20.65;70.05
74615;BME280;63121;51.458;-0.110;2023-09-18T04:30:55;99995.91;;;20.80;69.51
74615;BME280;63121;51.458;-0.110;2023-09-18T04:33:20;99996.13;;;20.77;70.27
74615;BME280;63121;51.458;-0.110;2023-09-18T04:35:47;99987.09;;;20.54;70.49
74615;BME280;63121;51.458;-0.110;2023-09-18T04:38:12;99987.88;;;20.83;69.85
74615;BME280;63121;51.458;-0.110;2023-09-18T04:40:40;99990.34;;;20.72;70.23
74615;BME280;63121;51.458;-0.110;2023-09-18T04:43:06;99989.91;;;20.65;69.95
74615;BME280;63121;51.458;-0.110;2023-09-18T04:45:31;99997.06;;;20.76;69.62
74615;BME280;63121;51.458;-0.110;2023-09-18T04:47:57;99996.22;;;20.76;70.33
74615;BME280;63121;51.458;-0.110;2023-09-18T04:50:23;99993.06;;;20.70;69.84
74615;BME280;63121;51.458;-0.110;2023-09-18T04:52:48;99992.00;;;20.60;69.86
74615;BME280;63121;51.458;-0.110;2023-09-18T04:55:16;99991.84;;;20.89;69.67
74615;BME280;63121;51.458;-0.110;2023-09-18T04:57:41;99987.81;;;20.98;69.83
74615;BME280;63121;51.458;-0.110;2023-09-18T05:00:07;99993.31;;;20.80;69.49
74615;BME280;63121;51.458;-0.110;2023-09-18T05:02:34;99982.34;;;21.01;69.67
74615;BME280;63121;51.458;-0.110;2023-09-18T05:05:00;99987.59;;;21.01;68.98
74615;BME280;63121;51.458;-0.110;2023-09-18T05:07:25;99985.22;;;21.23;69.21
74615;BME280;63121;51.458;-0.110;2023-09-18T05:09:51;99989.84;;;21.32;68.92
74615;BME280;63121;51.458;-0.110;2023-09-18T05:12:17;99981.09;;;21.06;69.66
74615;BME280;63121;51.458;-0.110;2023-09-18T05:14:43;99982.44;;;20.99;69.14
74615;BME280;63121;51.458;-0.110;2023-09-18T05:17:15;99990.69;;;20.80;69.68
74615;BME280;63121;51.458;-0.110;2023-09-18T05:19:40;99986.00;;;20.85;69.53
74615;BME280;63121;51.458;-0.110;2023-09-18T05:22:07;99976.13;;;20.89;69.17
74615;BME280;63121;51.458;-0.110;2023-09-18T05:24:33;99979.28;;;20.94;69.52
74615;BME280;63121;51.458;-0.110;2023-09-18T05:26:58;99981.59;;;20.99;69.17
74615;BME280;63121;51.458;-0.110;2023-09-18T05:29:24;99986.31;;;20.94;69.28
74615;BME280;63121;51.458;-0.110;2023-09-18T05:31:49;99980.00;;;20.83;69.67
74615;BME280;63121;51.458;-0.110;2023-09-18T05:34:14;99985.69;;;20.90;69.46
74615;BME280;63121;51.458;-0.110;2023-09-18T05:36:40;99977.81;;;20.90;69.76
74615;BME280;63121;51.458;-0.110;2023-09-18T05:39:06;99984.09;;;20.87;69.42
74615;BME280;63121;51.458;-0.110;2023-09-18T05:41:36;99980.09;;;20.82;69.34
74615;BME280;63121;51.458;-0.110;2023-09-18T05:44:02;99985.56;;;20.79;69.51
74615;BME280;63121;51.458;-0.110;2023-09-18T05:46:30;99971.53;;;21.05;68.88
74615;BME280;63121;51.458;-0.110;2023-09-18T05:48:56;99980.13;;;20.95;68.83
74615;BME280;63121;51.458;-0.110;2023-09-18T05:51:22;99984.75;;;21.04;68.78
74615;BME280;63121;51.458;-0.110;2023-09-18T05:53:48;99981.81;;;20.96;69.36
74615;BME280;63121;51.458;-0.110;2023-09-18T05:56:13;99984.22;;;20.99;69.14
74615;BME280;63121;51.458;-0.110;2023-09-18T05:58:39;99995.69;;;20.98;69.05
74615;BME280;63121;51.458;-0.110;2023-09-18T06:01:06;99985.19;;;20.98;69.32
74615;BME280;63121;51.458;-0.110;2023-09-18T06:03:32;99982.75;;;20.95;68.81
74615;BME280;63121;51.458;-0.110;2023-09-18T06:06:01;99987.06;;;20.96;68.73
74615;BME280;63121;51.458;-0.110;2023-09-18T06:08:27;99987.66;;;20.86;68.66
74615;BME280;63121;51.458;-0.110;2023-09-18T06:10:53;99985.19;;;20.98;68.37
74615;BME280;63121;51.458;-0.110;2023-09-18T06:13:20;99981.91;;;20.94;68.69
74615;BME280;63121;51.458;-0.110;2023-09-18T06:15:46;99974.22;;;20.91;68.42
74615;BME280;63121;51.458;-0.110;2023-09-18T06:18:11;99973.00;;;20.97;68.21
74615;BME280;63121;51.458;-0.110;2023-09-18T06:20:36;99975.72;;;20.95;68.22
74615;BME280;63121;51.458;-0.110;2023-09-18T06:23:02;99976.25;;;20.87;68.07
74615;BME280;63121;51.458;-0.110;2023-09-18T06:25:29;99980.88;;;21.09;67.66
74615;BME280;63121;51.458;-0.110;2023-09-18T06:27:56;99971.50;;;20.92;68.16
74615;BME280;63121;51.458;-0.110;2023-09-18T06:30:21;99972.28;;;21.07;67.52
74615;BME280;63121;51.458;-0.110;2023-09-18T06:32:47;99978.97;;;20.99;67.67
74615;BME280;63121;51.458;-0.110;2023-09-18T06:35:13;99982.69;;;21.09;68.00
74615;BME280;63121;51.458;-0.110;2023-09-18T06:37:38;99984.81;;;21.29;67.60
74615;BME280;63121;51.458;-0.110;2023-09-18T06:40:04;99983.84;;;21.18;67.36
74615;BME280;63121;51.458;-0.110;2023-09-18T06:42:31;99981.72;;;21.23;67.01
74615;BME280;63121;51.458;-0.110;2023-09-18T06:44:56;99983.06;;;21.43;66.39
74615;BME280;63121;51.458;-0.110;2023-09-18T06:47:21;99978.53;;;21.58;66.60
74615;BME280;63121;51.458;-0.110;2023-09-18T06:49:49;99988.22;;;21.57;65.91
74615;BME280;63121;51.458;-0.110;2023-09-18T06:52:14;99987.53;;;21.41;65.90
74615;BME280;63121;51.458;-0.110;2023-09-18T06:54:40;99983.28;;;21.52;65.87
74615;BME280;63121;51.458;-0.110;2023-09-18T06:57:06;99975.97;;;21.95;65.25
74615;BME280;63121;51.458;-0.110;2023-09-18T06:59:31;99981.03;;;21.98;65.05
74615;BME280;63121;51.458;-0.110;2023-09-18T07:01:59;99978.34;;;22.10;65.04
74615;BME280;63121;51.458;-0.110;2023-09-18T07:04:25;99984.13;;;22.28;63.92
74615;BME280;63121;51.458;-0.110;2023-09-18T07:06:50;99987.47;;;22.18;64.08
74615;BME280;63121;51.458;-0.110;2023-09-18T07:09:17;99979.91;;;22.13;64.61
74615;BME280;63121;51.458;-0.110;2023-09-18T07:11:43;99979.00;;;22.14;63.95
74615;BME280;63121;51.458;-0.110;2023-09-18T07:14:09;99973.78;;;21.88;64.46
74615;BME280;63121;51.458;-0.110;2023-09-18T07:16:34;99980.31;;;21.83;65.29
74615;BME280;63121;51.458;-0.110;2023-09-18T07:18:59;99975.78;;;22.22;64.03
74615;BME280;63121;51.458;-0.110;2023-09-18T07:21:26;99977.84;;;22.05;64.99
74615;BME280;63121;51.458;-0.110;2023-09-18T07:23:51;99975.97;;;21.82;64.89
74615;BME280;63121;51.458;-0.110;2023-09-18T07:26:17;99976.41;;;21.76;65.27
74615;BME280;63121;51.458;-0.110;2023-09-18T07:28:42;99977.38;;;21.62;64.39
74615;BME280;63121;51.458;-0.110;2023-09-18T07:31:12;99981.38;;;21.67;65.25
74615;BME280;63121;51.458;-0.110;2023-09-18T07:33:37;99975.28;;;21.54;64.95
74615;BME280;63121;51.458;-0.110;2023-09-18T07:36:03;99976.00;;;21.56;64.72
74615;BME280;63121;51.458;-0.110;2023-09-18T07:38:29;99969.41;;;21.50;64.73
74615;BME280;63121;51.458;-0.110;2023-09-18T07:40:54;99979.03;;;21.37;65.05
74615;BME280;63121;51.458;-0.110;2023-09-18T07:43:21;99976.25;;;21.53;64.71
74615;BME280;63121;51.458;-0.110;2023-09-18T07:45:49;99975.78;;;21.85;64.31
74615;BME280;63121;51.458;-0.110;2023-09-18T07:48:14;99980.19;;;21.97;63.19
74615;BME280;63121;51.458;-0.110;2023-09-18T07:50:45;99968.66;;;22.24;63.07
74615;BME280;63121;51.458;-0.110;2023-09-18T07:53:11;99968.97;;;22.19;62.97
74615;BME280;63121;51.458;-0.110;2023-09-18T07:55:37;99967.88;;;21.98;63.34
74615;BME280;63121;51.458;-0.110;2023-09-18T07:58:03;99975.19;;;22.18;63.13
74615;BME280;63121;51.458;-0.110;2023-09-18T08:00:29;99962.81;;;22.07;62.28
74615;BME280;63121;51.458;-0.110;2023-09-18T08:02:56;99961.78;;;22.82;62.12
74615;BME280;63121;51.458;-0.110;2023-09-18T08:05:26;99964.50;;;22.69;62.02
74615;BME280;63121;51.458;-0.110;2023-09-18T08:07:55;99965.91;;;22.98;60.88
74615;BME280;63121;51.458;-0.110;2023-09-18T08:10:22;99965.00;;;23.10;60.61
74615;BME280;63121;51.458;-0.110;2023-09-18T08:12:47;99967.94;;;23.63;60.22
74615;BME280;63121;51.458;-0.110;2023-09-18T08:15:13;99972.06;;;23.79;59.80
74615;BME280;63121;51.458;-0.110;2023-09-18T08:17:39;99974.16;;;23.28;59.53
74615;BME280;63121;51.458;-0.110;2023-09-18T08:20:05;99968.41;;;22.99;60.21
74615;BME280;63121;51.458;-0.110;2023-09-18T08:22:37;99957.25;;;22.84;60.61
74615;BME280;63121;51.458;-0.110;2023-09-18T08:25:03;99955.47;;;23.31;60.67
74615;BME280;63121;51.458;-0.110;2023-09-18T08:27:28;99970.06;;;23.24;59.79
74615;BME280;63121;51.458;-0.110;2023-09-18T08:29:54;99959.69;;;23.57;59.85
74615;BME280;63121;51.458;-0.110;2023-09-18T08:32:19;99956.91;;;23.36;60.06
74615;BME280;63121;51.458;-0.110;2023-09-18T08:34:45;99954.06;;;23.39;59.39
74615;BME280;63121;51.458;-0.110;2023-09-18T08:37:10;99951.38;;;23.27;59.06
74615;BME280;63121;51.458;-0.110;2023-09-18T08:39:36;99944.31;;;23.05;60.18
74615;BME280;63121;51.458;-0.110;2023-09-18T08:42:03;99941.47;;;22.96;60.28
74615;BME280;63121;51.458;-0.110;2023-09-18T08:44:29;99943.72;;;23.13;59.39
74615;BME280;63121;51.458;-0.110;2023-09-18T08:46:55;99943.25;;;22.84;60.54
74615;BME280;63121;51.458;-0.110;2023-09-18T08:49:23;99936.66;;;23.13;60.02
74615;BME280;63121;51.458;-0.110;2023-09-18T08:51:51;99935.56;;;22.81;60.80
74615;BME280;63121;51.458;-0.110;2023-09-18T08:54:16;99944.56;;;23.13;59.84
74615;BME280;63121;51.458;-0.110;2023-09-18T08:56:42;99941.00;;;23.37;60.17
74615;BME280;63121;51.458;-0.110;2023-09-18T08:59:07;99935.25;;;22.85;60.81
74615;BME280;63121;51.458;-0.110;2023-09-18T09:01:33;99941.69;;;22.81;60.86
74615;BME280;63121;51.458;-0.110;2023-09-18T09:03:58;99928.09;;;22.99;61.22
74615;BME280;63121;51.458;-0.110;2023-09-18T09:06:25;99918.13;;;23.38;60.82
74615;BME280;63121;51.458;-0.110;2023-09-18T09:08:51;99916.13;;;23.64;61.74
74615;BME280;63121;51.458;-0.110;2023-09-18T09:11:17;99908.97;;;24.21;60.94
74615;BME280;63121;51.458;-0.110;2023-09-18T09:13:43;99895.09;;;24.51;60.21
74615;BME280;63121;51.458;-0.110;2023-09-18T09:16:11;99896.56;;;24.00;60.72
74615;BME280;63121;51.458;-0.110;2023-09-18T09:18:47;99898.97;;;23.58;59.79
74615;BME280;63121;51.458;-0.110;2023-09-18T09:21:13;99880.66;;;23.68;60.75
74615;BME280;63121;51.458;-0.110;2023-09-18T09:23:46;99884.34;;;23.99;60.18
74615;BME280;63121;51.458;-0.110;2023-09-18T09:26:18;99877.91;;;24.24;59.33
74615;BME280;63121;51.458;-0.110;2023-09-18T09:28:44;99866.44;;;24.46;58.63
74615;BME280;63121;51.458;-0.110;2023-09-18T09:31:10;99861.66;;;24.40;58.35
74615;BME280;63121;51.458;-0.110;2023-09-18T09:33:37;99852.94;;;24.28;58.24
74615;BME280;63121;51.458;-0.110;2023-09-18T09:36:06;99854.25;;;24.34;58.56
74615;BME280;63121;51.458;-0.110;2023-09-18T09:38:33;99844.81;;;23.99;58.97
74615;BME280;63121;51.458;-0.110;2023-09-18T09:41:03;99843.25;;;24.29;58.30
74615;BME280;63121;51.458;-0.110;2023-09-18T09:43:32;99832.13;;;23.70;59.21
74615;BME280;63121;51.458;-0.110;2023-09-18T09:45:59;99829.59;;;24.24;57.51
74615;BME280;63121;51.458;-0.110;2023-09-18T09:48:25;99825.78;;;24.49;57.71
74615;BME280;63121;51.458;-0.110;2023-09-18T09:50:52;99818.81;;;24.27;56.52
74615;BME280;63121;51.458;-0.110;2023-09-18T09:53:43;99813.41;;;24.70;56.35
74615;BME280;63121;51.458;-0.110;2023-09-18T09:56:13;99810.88;;;25.11;54.33
74615;BME280;63121;51.458;-0.110;2023-09-18T09:58:39;99800.13;;;24.51;54.00
74615;BME280;63121;51.458;-0.110;2023-09-18T10:01:11;99800.34;;;23.94;54.13
74615;BME280;63121;51.458;-0.110;2023-09-18T10:03:52;99797.72;;;23.94;53.79
74615;BME280;63121;51.458;-0.110;2023-09-18T10:06:21;99795.94;;;23.95;55.31
74615;BME280;63121;51.458;-0.110;2023-09-18T10:08:47;99794.75;;;23.22;55.81
74615;BME280;63121;51.458;-0.110;2023-09-18T10:11:14;99790.66;;;23.29;55.96
74615;BME280;63121;51.458;-0.110;2023-09-18T10:13:55;99779.03;;;22.98;56.76
74615;BME280;63121;51.458;-0.110;2023-09-18T10:16:22;99782.59;;;23.42;56.77
74615;BME280;63121;51.458;-0.110;2023-09-18T10:19:17;99779.41;;;23.27;57.45
74615;BME280;63121;51.458;-0.110;2023-09-18T10:24:33;99771.44;;;24.04;56.42
74615;BME280;63121;51.458;-0.110;2023-09-18T10:27:01;99777.56;;;24.47;55.75
74615;BME280;63121;51.458;-0.110;2023-09-18T10:29:35;99771.16;;;24.40;56.22
74615;BME280;63121;51.458;-0.110;2023-09-18T10:32:05;99765.88;;;24.91;54.55
74615;BME280;63121;51.458;-0.110;2023-09-18T10:34:34;99762.72;;;24.67;54.94
74615;BME280;63121;51.458;-0.110;2023-09-18T10:37:00;99756.91;;;25.04;53.86
74615;BME280;63121;51.458;-0.110;2023-09-18T10:39:26;99756.72;;;25.36;53.54
74615;BME280;63121;51.458;-0.110;2023-09-18T10:41:55;99754.72;;;25.09;53.67
74615;BME280;63121;51.458;-0.110;2023-09-18T10:44:27;99758.22;;;24.88;53.09
74615;BME280;63121;51.458;-0.110;2023-09-18T10:46:53;99756.19;;;25.32;52.73
74615;BME280;63121;51.458;-0.110;2023-09-18T10:49:20;99753.44;;;25.13;52.99
74615;BME280;63121;51.458;-0.110;2023-09-18T10:51:46;99749.22;;;25.31;52.02
74615;BME280;63121;51.458;-0.110;2023-09-18T10:54:17;99757.19;;;25.10;51.85
74615;BME280;63121;51.458;-0.110;2023-09-18T10:56:45;99755.53;;;25.09;51.04
74615;BME280;63121;51.458;-0.110;2023-09-18T10:59:11;99753.56;;;25.52;50.25
74615;BME280;63121;51.458;-0.110;2023-09-18T11:01:37;99745.06;;;25.48;50.58
74615;BME280;63121;51.458;-0.110;2023-09-18T11:04:06;99740.88;;;24.95;52.14
74615;BME280;63121;51.458;-0.110;2023-09-18T11:09:22;99737.72;;;25.02;52.05
74615;BME280;63121;51.458;-0.110;2023-09-18T11:12:02;99744.75;;;25.22;52.51
74615;BME280;63121;51.458;-0.110;2023-09-18T11:17:33;99739.53;;;25.71;50.76
74615;BME280;63121;51.458;-0.110;2023-09-18T11:22:35;99742.75;;;25.74;50.03
74615;BME280;63121;51.458;-0.110;2023-09-18T11:28:00;99742.97;;;25.32;51.05
74615;BME280;63121;51.458;-0.110;2023-09-18T11:30:27;99739.00;;;25.58;51.23
74615;BME280;63121;51.458;-0.110;2023-09-18T11:32:55;99737.44;;;25.65;50.53
74615;BME280;63121;51.458;-0.110;2023-09-18T11:35:21;99734.69;;;26.15;50.41
74615;BME280;63121;51.458;-0.110;2023-09-18T11:37:47;99743.16;;;25.60;50.86
74615;BME280;63121;51.458;-0.110;2023-09-18T11:40:34;99742.63;;;24.85;52.19
74615;BME280;63121;51.458;-0.110;2023-09-18T11:43:26;99740.47;;;24.90;52.79
74615;BME280;63121;51.458;-0.110;2023-09-18T11:45:59;99733.31;;;24.81;52.71
74615;BME280;63121;51.458;-0.110;2023-09-18T11:48:26;99746.31;;;24.63;52.63
74615;BME280;63121;51.458;-0.110;2023-09-18T11:50:58;99747.31;;;24.72;53.10
74615;BME280;63121;51.458;-0.110;2023-09-18T11:53:27;99753.25;;;24.64;52.54
74615;BME280;63121;51.458;-0.110;2023-09-18T11:55:53;99752.03;;;24.99;52.15
74615;BME280;63121;51.458;-0.110;2023-09-18T11:58:18;99749.88;;;24.52;53.38
74615;BME280;63121;51.458;-0.110;2023-09-18T12:00:49;99756.59;;;23.60;54.78
74615;BME280;63121;51.458;-0.110;2023-09-18T12:03:20;99761.94;;;23.69;55.03
74615;BME280;63121;51.458;-0.110;2023-09-18T12:06:01;99760.19;;;23.59;54.76
74615;BME280;63121;51.458;-0.110;2023-09-18T12:08:28;99755.25;;;23.77;54.79
74615;BME280;63121;51.458;-0.110;2023-09-18T12:10:56;99763.53;;;23.61;54.22
74615;BME280;63121;51.458;-0.110;2023-09-18T12:13:24;99782.22;;;24.01;53.63
74615;BME280;63121;51.458;-0.110;2023-09-18T12:16:04;99779.91;;;24.61;52.43
74615;BME280;63121;51.458;-0.110;2023-09-18T12:18:33;99785.34;;;24.27;53.05
74615;BME280;63121;51.458;-0.110;2023-09-18T12:21:08;99772.75;;;24.73;52.13
74615;BME280;63121;51.458;-0.110;2023-09-18T12:23:37;99785.41;;;24.16;52.81
74615;BME280;63121;51.458;-0.110;2023-09-18T12:26:04;99798.41;;;23.97;53.14
74615;BME280;63121;51.458;-0.110;2023-09-18T12:28:31;99797.00;;;24.46;52.65
74615;BME280;63121;51.458;-0.110;2023-09-18T12:30:57;99789.91;;;24.25;53.12
74615;BME280;63121;51.458;-0.110;2023-09-18T12:33:24;99805.41;;;23.75;54.95
74615;BME280;63121;51.458;-0.110;2023-09-18T12:35:50;99808.53;;;23.69;54.30
74615;BME280;63121;51.458;-0.110;2023-09-18T12:38:17;99813.47;;;23.62;56.38
74615;BME280;63121;51.458;-0.110;2023-09-18T12:40:49;99812.03;;;23.58;58.86
74615;BME280;63121;51.458;-0.110;2023-09-18T12:43:15;99813.03;;;24.01;57.59
74615;BME280;63121;51.458;-0.110;2023-09-18T12:45:42;99814.91;;;23.78;57.84
74615;BME280;63121;51.458;-0.110;2023-09-18T12:48:09;99820.06;;;23.79;57.33
74615;BME280;63121;51.458;-0.110;2023-09-18T12:50:35;99820.28;;;23.87;57.98
74615;BME280;63121;51.458;-0.110;2023-09-18T12:53:26;99827.53;;;24.60;55.25
74615;BME280;63121;51.458;-0.110;2023-09-18T12:55:52;99833.56;;;23.97;54.93
74615;BME280;63121;51.458;-0.110;2023-09-18T12:58:20;99838.66;;;23.32;55.10
74615;BME280;63121;51.458;-0.110;2023-09-18T13:00:49;99826.59;;;23.73;54.49